Ns Laguna — A8LU9 — position and weather

sailwx.info

Track history (hours):
 
Tides and Currents Weather Stations Pressure Air Temp Water Temp Dewpoint Dewpoint Depression Visibility Wind Speed Wind Dir Waves Ship Positions

Ns Laguna

Last reported at 2018-Jun-22 00:29 UTC. Time now 2018-Jun-22 03:24 UTC.
Position N 28°36' W 094°13'.

Length 249 m; draft 8 m.

Type: Tanker. MMSI: 636013274.

Date/timePositionNaut miles runAvg speedWind from/ knotsBaromVisibWave heightAir tempDewpointWater temp
2018-Jun-22 00:29N 28°36' W 094°13'0 0.0
2018-Jun-21 23:56N 28°36' W 094°13'0 0.0
2018-Jun-21 23:26N 28°36' W 094°13'0 0.0
2018-Jun-21 22:50N 28°36' W 094°13'0 0.0
2018-Jun-21 22:23N 28°36' W 094°13'0 0.0
2018-Jun-21 21:59N 28°36' W 094°13'0 0.0
2018-Jun-21 21:26N 28°36' W 094°13'0 0.0
2018-Jun-21 19:20N 28°36' W 094°13'0 0.0
2018-Jun-21 18:50N 28°36' W 094°13'0 0.0
2018-Jun-21 17:59N 28°36' W 094°13'0 0.0
2018-Jun-21 17:23N 28°36' W 094°13'0 0.0
2018-Jun-21 13:29N 28°36' W 094°13'  
2018-Jun-12 11:57N 29°46' W 093°21'4 8.6
2018-Jun-12 11:31N 29°50' W 093°21'4 8.3
2018-Jun-12 11:01N 29°54' W 093°21'4 7.9
2018-Jun-12 10:30N 29°58' W 093°20'3 6.4
2018-Jun-12 10:01N 30°02' W 093°20'3 6.9
2018-Jun-12 09:31N 30°05' W 093°20'3 6.1
2018-Jun-12 09:01N 30°08' W 093°20'1 2.3
2018-Jun-12 08:31N 30°09' W 093°20'0 0.5
2018-Jun-12 08:01N 30°09' W 093°20'0 0.0
2018-Jun-12 07:31N 30°09' W 093°20'0 0.0
2018-Jun-12 07:01N 30°09' W 093°20'0 0.0
2018-Jun-12 06:28N 30°09' W 093°20'0 0.0
2018-Jun-12 05:58N 30°09' W 093°20'0 0.0
2018-Jun-12 05:31N 30°09' W 093°20'0 0.0
2018-Jun-12 05:01N 30°09' W 093°20'0 0.0
2018-Jun-12 04:31N 30°09' W 093°20'0 0.0
2018-Jun-12 04:01N 30°09' W 093°20'0 0.0
2018-Jun-12 03:28N 30°09' W 093°20'0 0.0
2018-Jun-12 03:01N 30°09' W 093°20'0 0.0
2018-Jun-12 02:31N 30°09' W 093°20'0 0.0
2018-Jun-12 02:01N 30°09' W 093°20'0 0.0
2018-Jun-12 01:31N 30°09' W 093°20'0 0.0
2018-Jun-12 01:01N 30°09' W 093°20'0 0.0
2018-Jun-12 00:31N 30°09' W 093°20'  
Track history (hours):
 
Tides and Currents Weather Stations Pressure Air Temp Water Temp Dewpoint Dewpoint Depression Visibility Wind Speed Wind Dir Waves Ship Positions

Ns Laguna

Last reported at 2018-Jun-22 00:29 UTC. Time now 2018-Jun-22 03:24 UTC.
Position N 28°36' W 094°13'.

Length 249 m; draft 8 m.

Type: Tanker. MMSI: 636013274.

Date/timePositionNaut miles runAvg speedWind from/ knotsBaromVisibWave heightAir tempDewpointWater temp
2018-Jun-22 00:29N 28°36' W 094°13'0 0.0
2018-Jun-21 23:56N 28°36' W 094°13'0 0.0
2018-Jun-21 23:26N 28°36' W 094°13'0 0.0
2018-Jun-21 22:50N 28°36' W 094°13'0 0.0
2018-Jun-21 22:23N 28°36' W 094°13'0 0.0
2018-Jun-21 21:59N 28°36' W 094°13'0 0.0
2018-Jun-21 21:26N 28°36' W 094°13'0 0.0
2018-Jun-21 19:20N 28°36' W 094°13'0 0.0
2018-Jun-21 18:50N 28°36' W 094°13'0 0.0
2018-Jun-21 17:59N 28°36' W 094°13'0 0.0
2018-Jun-21 17:23N 28°36' W 094°13'0 0.0
2018-Jun-21 13:29N 28°36' W 094°13'  
2018-Jun-12 11:57N 29°46' W 093°21'4 8.6
2018-Jun-12 11:31N 29°50' W 093°21'4 8.3
2018-Jun-12 11:01N 29°54' W 093°21'4 7.9
2018-Jun-12 10:30N 29°58' W 093°20'3 6.4
2018-Jun-12 10:01N 30°02' W 093°20'3 6.9
2018-Jun-12 09:31N 30°05' W 093°20'3 6.1
2018-Jun-12 09:01N 30°08' W 093°20'1 2.3
2018-Jun-12 08:31N 30°09' W 093°20'0 0.5
2018-Jun-12 08:01N 30°09' W 093°20'0 0.0
2018-Jun-12 07:31N 30°09' W 093°20'0 0.0
2018-Jun-12 07:01N 30°09' W 093°20'0 0.0
2018-Jun-12 06:28N 30°09' W 093°20'0 0.0
2018-Jun-12 05:58N 30°09' W 093°20'0 0.0
2018-Jun-12 05:31N 30°09' W 093°20'0 0.0
2018-Jun-12 05:01N 30°09' W 093°20'0 0.0
2018-Jun-12 04:31N 30°09' W 093°20'0 0.0
2018-Jun-12 04:01N 30°09' W 093°20'0 0.0
2018-Jun-12 03:28N 30°09' W 093°20'0 0.0
2018-Jun-12 03:01N 30°09' W 093°20'0 0.0
2018-Jun-12 02:31N 30°09' W 093°20'0 0.0
2018-Jun-12 02:01N 30°09' W 093°20'0 0.0
2018-Jun-12 01:31N 30°09' W 093°20'0 0.0
2018-Jun-12 01:01N 30°09' W 093°20'0 0.0
2018-Jun-12 00:31N 30°09' W 093°20'  

Dump ship's entire track history